Airfield :
LOGIN :

Register | Disclaimer

   EN    FR    IT 

 










Legend :    VFR   Marginal VFR   IFR   Intensive IFR   Very Intensive IFR
Visi :
Ceiling :
>= 8 km
>= 3000ft
5 to 8 km
1000 to 3000 ft
1500m to 5 km
500 to 1000 ft
800 to 1500m
200 to 500 ft
< 800m
< 200 ft
Symbols :   Thunderstorms  Fog  Heavy snow  Heavy precipitations  Wind > 20 kt
SIGMETs :     Misc.  Thunderstorms  Icing  Turbulence  Mountain Waves  Volcanic Ashes







- Airport Elevation : 144 ft
- IATA code : PGF
- Download approach charts


LFMP - Perpignan

CURRENT METAR :
  • 212130Z AUTO 31011KT 9999 NCD 28/19 Q1016 NOSIG

EXPIRED METARs :
  • 212100Z AUTO 31012KT 9999 NCD 28/19 Q1016 NOSIG
  • 212030Z AUTO 31011KT CAVOK 29/19 Q1016 NOSIG
  • 212000Z AUTO 31010KT 9999 NCD 29/19 Q1016 TEMPO FEW030CB
  • 211930Z AUTO 32013KT 9999 NCD 30/19 Q1016 TEMPO FEW030CB
  • 211900Z AUTO 32009KT 300V360 9999 NCD 30/18 Q1015 TEMPO FEW030CB
  • 211830Z AUTO 32011KT CAVOK 31/18 Q1015 TEMPO FEW030CB

TAF TAF LFMP
Valid from the 21 at 09:00 until the 22 at 09:00 UTC


210800Z 2109/2209 VRB03KT CAVOK
BECMG 2109/2111 32012KT FEW030
TEMPO 2115/2121 FEW030CB
BECMG 2201/2203 30020G30KT CAVOK
ATIS : +33 4 68 63 75 12
No reported NOTAMs for that airfield.



MET'MAP, your aeronautical weather chart ! - Copyright ORBIFLY December 2007 - Disclaimer

ORBIFLY MET'MAP TEAM :

Programming & Development : Alexandra Zaïnal
Concept & Development : Baudouin d'Aumeries
Co-Development & Prog : Marc-Olivier Méhu
Technical & hardware support : Manuel Goepfert

Contact : metmap@orbifly.com




SOURCES & CREDITS :

   NOAA